Pagrindinis puslapis
METAR-TAF:

METAR-TAF

Oro uostai :

Salvadoras, Bahija, Brazilija

platuma: 12-54S, ilguma: 038-20W, Aukštis: 6 m

Dabartinis oras

Ataskaita buvo paskelbta 22 minutes, ne 21:00 UTC
Vėjas 9 kt iš Rytų
Temperatūra 26°C
Drėgmė 65%
Slėgis 1015 hPa
Matomumas 10 km arba daugiau
Mažai debesys ne aukštis 2000 ft

METAR: SBSV 212100Z 08009KT 9999 FEW020 26/19 Q1015

Laikas: 18:22 (21:22 UTC)

Prognozė

Ataskaita buvo paskelbta 5 valandos ir 22 minutes, ne 16:00 UTC
Prognozė galioja nuo 21 metu 18 UTC su 22 metu 18 UTC
Vėjas 15 kt iš Rytų
Matomumas 10 km arba daugiau
Išsisklaidę debesys ne aukštis 2000 ft
Tapsmas
nuo 21 metu 22 UTC su 21 metu 24 UTC
Vėjas 8 kt iš Rytų/Šiaurės Rytų
Tapsmas
nuo 22 metu 10 UTC su 22 metu 12 UTC
Vėjas 10 kt iš Rytų
Tapsmas
nuo 22 metu 15 UTC su 22 metu 17 UTC
Vėjas 15 kt iš Rytų/Šiaurės Rytų
Išsisklaidę debesys ne aukštis 2000 ft

TAF: SBSV 211600Z 2118/2218 09015KT 9999 SCT020 TN24/2208Z TX28/2215Z BECMG 2122/2124 06008KT BECMG 2210/2212 09010KT BECMG 2215/2217 06015KT SCT020 RMK PEH

Orai ataskaitas ir orų prognozės (METAR, TAF).

turimą stotys yra geltonos ir raudonos taškus žemėlapyje.

Perkelti pele per norėdami pamatyti stoties vardą.

Tada spustelėkite, norėdami matyti oro stebėjimo ir prognozės.

Norėdami pakeisti žemėlapį: spustelėkite ant žalios mygtukų su juodo kryžiaus žemyn,; žalią mygtuką su brūkšneliu, jei norite nutolinti; arba žalių rodyklių gretimoms žemėlapius.


METAR-TAF: